createdAt,value
2023-05-11T00:00:18.441Z,0.90
2023-05-11T00:05:20.737Z,0.57
2023-05-11T00:10:22.987Z,0.65
2023-05-11T00:15:25.201Z,0.80
2023-05-11T00:20:27.419Z,0.90
2023-05-11T00:25:29.421Z,0.55
2023-05-11T00:30:31.390Z,0.40
2023-05-11T00:35:33.464Z,0.80
2023-05-11T00:40:35.559Z,0.55
2023-05-11T00:45:37.894Z,0.60
2023-05-11T00:50:39.890Z,0.60
2023-05-11T00:55:42.352Z,0.50
2023-05-11T01:00:44.911Z,0.68
2023-05-11T01:06:08.308Z,0.50
2023-05-11T01:11:28.467Z,0.60
2023-05-11T01:16:35.287Z,0.60
2023-05-11T01:21:39.875Z,0.60
2023-05-11T01:27:14.531Z,0.68
2023-05-11T01:32:21.115Z,0.60
2023-05-11T01:37:24.105Z,0.73
2023-05-11T01:42:32.421Z,0.50
2023-05-11T01:47:37.661Z,0.80
2023-05-11T01:52:41.375Z,0.52
2023-05-11T01:57:45.447Z,0.50
2023-05-11T02:02:50.067Z,0.55
2023-05-11T02:07:54.677Z,0.70
2023-05-11T02:12:57.051Z,0.80
2023-05-11T02:17:59.900Z,0.95
2023-05-11T02:23:03.269Z,0.65
2023-05-11T02:28:06.338Z,0.50
2023-05-11T02:33:11.557Z,0.80
2023-05-11T02:38:16.223Z,0.60
2023-05-11T02:43:29.769Z,0.70
2023-05-11T02:48:40.188Z,0.70
2023-05-11T02:53:44.011Z,0.60
2023-05-11T02:58:46.040Z,0.57
2023-05-11T03:03:48.047Z,0.55
2023-05-11T03:08:50.464Z,0.77
2023-05-11T03:13:53.273Z,0.65
2023-05-11T03:18:56.255Z,0.32
2023-05-11T03:23:59.734Z,0.60
2023-05-11T03:29:03.524Z,0.50
2023-05-11T03:34:05.734Z,0.68
2023-05-11T03:39:09.714Z,0.73
2023-05-11T03:44:13.610Z,0.40
2023-05-11T03:49:16.383Z,1.02
2023-05-11T03:54:18.661Z,0.52
2023-05-11T03:59:21.221Z,0.73
2023-05-11T04:04:30.049Z,0.43
2023-05-11T04:09:32.549Z,0.88
2023-05-11T04:14:34.562Z,0.55
2023-05-11T04:19:36.641Z,0.60
2023-05-11T04:24:39.215Z,0.73
2023-05-11T04:29:41.084Z,0.85
2023-05-11T04:34:43.139Z,0.50
2023-05-11T04:39:45.159Z,1.05
2023-05-11T04:44:47.216Z,0.80
2023-05-11T04:49:49.150Z,0.60
2023-05-11T04:54:51.046Z,0.60
2023-05-11T04:59:53.054Z,1.00
2023-05-11T05:04:55.013Z,0.73
2023-05-11T05:09:57.072Z,0.73
2023-05-11T05:14:59.131Z,0.70
2023-05-11T05:20:01.238Z,0.47
2023-05-11T05:25:03.258Z,0.70
2023-05-11T05:30:05.808Z,0.60
2023-05-11T05:35:08.099Z,0.63
2023-05-11T05:40:10.551Z,0.60
2023-05-11T05:45:14.749Z,0.60
2023-05-11T05:50:17.448Z,0.65
2023-05-11T05:55:19.885Z,0.50
2023-05-11T06:00:21.918Z,0.50
2023-05-11T06:05:24.214Z,0.75
2023-05-11T06:10:26.303Z,1.23
2023-05-11T06:15:28.373Z,0.77
2023-05-11T06:20:32.414Z,0.43
2023-05-11T06:25:35.707Z,0.80
2023-05-11T06:30:37.692Z,0.77
2023-05-11T06:35:39.922Z,0.80
2023-05-11T06:40:41.961Z,2.50
2023-05-11T06:45:47.112Z,2.42
2023-05-11T06:50:49.519Z,1.85
2023-05-11T06:55:52.135Z,2.42
2023-05-11T07:00:54.492Z,2.75
2023-05-11T07:05:56.522Z,3.67
2023-05-11T07:10:58.743Z,2.80
2023-05-11T07:16:01.046Z,2.83
2023-05-11T07:21:03.132Z,2.25
2023-05-11T07:26:09.426Z,2.67
2023-05-11T07:31:11.555Z,2.58
2023-05-11T07:36:13.580Z,2.67
2023-05-11T07:41:15.741Z,2.72
2023-05-11T07:46:17.767Z,1.92
2023-05-11T07:51:19.701Z,2.78
2023-05-11T07:56:21.659Z,2.00
2023-05-11T08:01:24.096Z,1.92
2023-05-11T08:06:26.179Z,1.95
2023-05-11T08:11:28.852Z,1.75
2023-05-11T08:16:30.852Z,2.78
2023-05-11T08:21:33.336Z,2.53
2023-05-11T08:26:35.478Z,1.45
2023-05-11T08:31:37.713Z,2.03
2023-05-11T08:36:39.696Z,1.50
2023-05-11T08:41:42.146Z,1.83
2023-05-11T08:46:47.503Z,1.70
2023-05-11T08:51:49.751Z,1.67
2023-05-11T08:56:52.134Z,2.58
2023-05-11T09:01:54.890Z,3.08
2023-05-11T09:06:57.881Z,3.63
2023-05-11T09:11:59.925Z,2.65
2023-05-11T09:17:03.365Z,2.58
2023-05-11T09:22:07.134Z,2.90
2023-05-11T09:27:09.967Z,2.78
2023-05-11T09:32:12.063Z,2.63
2023-05-11T09:37:19.021Z,2.45
2023-05-11T09:42:23.873Z,2.83
2023-05-11T09:47:27.771Z,2.38
2023-05-11T09:52:29.859Z,2.33
2023-05-11T09:57:32.143Z,2.78
2023-05-11T10:02:34.713Z,2.60
2023-05-11T10:07:38.134Z,2.10
2023-05-11T10:12:40.670Z,2.65
2023-05-11T10:17:46.703Z,2.50
2023-05-11T10:22:51.026Z,1.85
2023-05-11T10:27:53.813Z,2.70
2023-05-11T10:32:55.887Z,2.40
2023-05-11T10:37:58.718Z,2.60
2023-05-11T10:43:09.865Z,2.10
2023-05-11T10:48:38.022Z,2.25
2023-05-11T10:54:18.106Z,3.75
2023-05-11T10:59:44.647Z,2.15
2023-05-11T11:04:51.823Z,3.13
2023-05-11T11:09:56.340Z,3.72
2023-05-11T11:15:03.071Z,3.38
2023-05-11T11:20:08.975Z,3.60
2023-05-11T11:25:12.839Z,3.42
2023-05-11T11:30:19.917Z,3.35
2023-05-11T11:35:44.170Z,2.92
2023-05-11T11:40:53.121Z,3.55
2023-05-11T11:46:02.380Z,3.25
2023-05-11T11:51:12.313Z,3.00
2023-05-11T11:56:14.309Z,3.22
2023-05-11T12:01:20.718Z,3.28
2023-05-11T12:06:28.895Z,3.05
2023-05-11T12:11:31.180Z,3.20
2023-05-11T12:16:33.584Z,3.22
2023-05-11T12:21:35.557Z,3.33
2023-05-11T12:26:37.424Z,3.58
2023-05-11T12:31:41.153Z,4.03
2023-05-11T12:36:44.297Z,3.35
2023-05-11T12:41:48.171Z,2.83
2023-05-11T12:46:50.881Z,2.85
2023-05-11T12:52:08.213Z,2.80
2023-05-11T12:57:27.490Z,4.15
2023-05-11T13:02:29.626Z,3.72
2023-05-11T13:07:31.686Z,2.80
2023-05-11T13:12:34.878Z,3.22
2023-05-11T13:17:38.114Z,3.15
2023-05-11T13:22:40.058Z,2.40
2023-05-11T13:27:42.112Z,3.10
2023-05-11T13:32:44.092Z,3.15
2023-05-11T13:37:47.237Z,2.67
2023-05-11T13:42:49.052Z,3.42
2023-05-11T13:47:50.904Z,3.00
2023-05-11T13:52:53.977Z,2.35
2023-05-11T13:57:56.815Z,2.85
2023-05-11T14:02:58.972Z,3.10
2023-05-11T14:08:01.066Z,2.60
2023-05-11T14:13:03.043Z,3.28
2023-05-11T14:18:05.594Z,2.38
2023-05-11T14:23:07.522Z,2.95
2023-05-11T14:28:09.707Z,2.17
2023-05-11T14:33:11.565Z,2.40
2023-05-11T14:38:13.401Z,2.60
2023-05-11T14:43:15.319Z,1.95
2023-05-11T14:48:17.211Z,2.25
2023-05-11T14:53:19.112Z,2.30
2023-05-11T14:58:21.255Z,1.67
2023-05-11T15:03:24.381Z,2.00
2023-05-11T15:08:30.269Z,2.28
2023-05-11T15:13:32.725Z,2.47
2023-05-11T15:18:34.718Z,2.40
2023-05-11T15:23:36.580Z,1.60
2023-05-11T15:28:38.458Z,1.80
2023-05-11T15:33:40.350Z,1.92
2023-05-11T15:38:43.388Z,1.58
2023-05-11T15:43:45.206Z,1.95
2023-05-11T15:48:47.131Z,1.48
2023-05-11T15:53:49.124Z,1.88
2023-05-11T15:58:50.955Z,1.88
2023-05-11T16:03:53.032Z,1.33
2023-05-11T16:08:55.406Z,1.90
2023-05-11T16:13:57.609Z,1.85
2023-05-11T16:19:01.517Z,1.45
2023-05-11T16:24:03.485Z,1.52
2023-05-11T16:29:06.210Z,1.13
2023-05-11T16:34:08.435Z,1.40
2023-05-11T16:39:10.658Z,1.67
2023-05-11T16:44:12.580Z,1.27
2023-05-11T16:49:14.379Z,1.55
2023-05-11T16:54:16.650Z,1.48
2023-05-11T16:59:18.481Z,1.38
2023-05-11T17:04:20.998Z,1.38
2023-05-11T17:09:23.405Z,1.30
2023-05-11T17:14:25.402Z,1.73
2023-05-11T17:19:27.482Z,1.63
2023-05-11T17:24:29.459Z,1.15
2023-05-11T17:29:31.710Z,1.20
2023-05-11T17:34:33.588Z,2.13
2023-05-11T17:39:35.643Z,1.77
2023-05-11T17:44:38.095Z,2.28
2023-05-11T17:49:40.158Z,2.53
2023-05-11T17:54:42.536Z,2.05
2023-05-11T17:59:45.863Z,3.03
2023-05-11T18:04:47.688Z,2.30
2023-05-11T18:09:49.860Z,2.42
2023-05-11T18:14:51.859Z,2.50
2023-05-11T18:19:53.765Z,2.58
2023-05-11T18:24:55.966Z,3.42
2023-05-11T18:29:58.416Z,3.17
2023-05-11T18:35:00.294Z,3.00
2023-05-11T18:40:06.488Z,3.08
2023-05-11T18:45:08.934Z,3.20
2023-05-11T18:50:11.257Z,3.28
2023-05-11T18:55:13.265Z,4.30
2023-05-11T19:00:16.454Z,4.05
2023-05-11T19:05:18.984Z,3.75
2023-05-11T19:10:23.040Z,4.43
2023-05-11T19:15:25.048Z,4.47
2023-05-11T19:20:27.394Z,4.40
2023-05-11T19:25:29.373Z,4.82
2023-05-11T19:30:31.634Z,4.75
2023-05-11T19:35:33.654Z,3.50
2023-05-11T19:40:46.041Z,4.65
2023-05-11T19:45:48.642Z,3.80
2023-05-11T19:50:50.592Z,2.83
2023-05-11T19:55:52.468Z,3.30
2023-05-11T20:00:55.191Z,4.00
2023-05-11T20:05:57.094Z,4.03
2023-05-11T20:10:59.265Z,3.85
2023-05-11T20:16:01.096Z,3.60
2023-05-11T20:21:03.037Z,3.55
2023-05-11T20:26:05.052Z,3.67
2023-05-11T20:31:07.329Z,3.03
2023-05-11T20:36:09.670Z,3.20
2023-05-11T20:41:12.140Z,4.28
2023-05-11T20:46:15.903Z,4.10
2023-05-11T20:51:17.848Z,4.00
2023-05-11T20:56:19.858Z,3.42
2023-05-11T21:01:22.864Z,3.38
2023-05-11T21:06:24.764Z,3.47
2023-05-11T21:11:26.824Z,3.28
2023-05-11T21:16:28.873Z,2.95
2023-05-11T21:21:30.728Z,3.08
2023-05-11T21:26:32.634Z,2.72
2023-05-11T21:31:34.740Z,3.15
2023-05-11T21:36:39.050Z,3.28
2023-05-11T21:41:41.024Z,3.22
2023-05-11T21:46:42.995Z,3.67
2023-05-11T21:51:44.865Z,2.67
2023-05-11T21:56:46.694Z,2.75
2023-05-11T22:01:49.855Z,2.35
2023-05-11T22:06:51.787Z,2.75
2023-05-11T22:11:53.716Z,2.70
2023-05-11T22:16:55.572Z,2.67
2023-05-11T22:21:57.440Z,2.78
2023-05-11T22:27:02.525Z,1.98
2023-05-11T22:32:04.740Z,2.75
2023-05-11T22:37:06.619Z,2.58
2023-05-11T22:42:08.427Z,2.50
2023-05-11T22:47:10.325Z,2.45
2023-05-11T22:52:12.909Z,2.15
2023-05-11T22:57:17.313Z,2.40
2023-05-11T23:02:19.323Z,2.45
2023-05-11T23:07:21.277Z,2.13
2023-05-11T23:12:23.268Z,1.88
2023-05-11T23:17:25.387Z,2.10
2023-05-11T23:22:27.367Z,2.33
2023-05-11T23:27:29.509Z,3.13
2023-05-11T23:32:31.677Z,2.70
2023-05-11T23:37:33.886Z,2.00
2023-05-11T23:42:35.687Z,1.85
2023-05-11T23:47:37.937Z,1.60
2023-05-11T23:52:39.961Z,1.98
2023-05-11T23:57:42.058Z,2.25
